Troy Municipal Airport
KTOI : now visible

Airfield :











YOU CAN JOIN US ON...

 
LOGIN :

Register | Disclaimer

   EN    FR    IT 

 









Legend :    VFR   Marginal VFR   IFR   Intensive IFR   Very Intensive IFR
Visi :
Ceiling :
>= 8 km
>= 3000ft
5 to 8 km
1000 to 3000 ft
1500m to 5 km
500 to 1000 ft
800 to 1500m
200 to 500 ft
< 800m
< 200 ft
Symbols :   Thunderstorms  Fog  Heavy snow  Heavy precipitations  Wind > 20 kt






- Airport Elevation : 398 ft


KTOI - Troy Municipal

CURRENT METAR :
  • 151853Z AUTO 14005KT 10SM OVC025 18/13 A3009 RMK AO2 SLP187 T01830133

EXPIRED METARs :
  • 151753Z AUTO 13006KT 10SM OVC028 17/12 A3011 RMK AO2 SLP195 T01670117 10172 20056 56014
  • 151653Z AUTO 13007KT 10SM BKN032 17/12 A3013 RMK AO2 SLP203 T01670117
  • 151622Z AUTO VRB04KT 10SM OVC030 15/12 A3015 RMK AO2 T01500122

TAF KTOI
Valid from the 15 at 18:00 until the 16 at 18:00 UTC


151748Z 1518/1618 17007KT P6SM SCT040
FM160700 17007KT 6SM BR BKN015
FM161500 16006KT P6SM BKN020
FM161700 17010KT P6SM BKN025



MET'MAP, your aeronautical weather chart ! - Copyright ORBIFLY December 2007 - Disclaimer

ORBIFLY MET'MAP TEAM :

Programming & Development : Alexandra Zaïnal
Concept & original design : Baudouin d'Aumeries
Assistance for programming : Marc-Olivier Méhu
Technical & hardware support : Manuel Goepfert

Contact : metmap@orbifly.com




SOURCES & CREDITS :

   NOAA       Earth
Advisory